sensor_id;sensor_type;location;lat;lon;timestamp;P1;durP1;ratioP1;P2;durP2;ratioP2
14268;SDS011;7218;51.480;7.006;2022-09-09T00:00:44;3.05;;;1.10;;
14268;SDS011;7218;51.480;7.006;2022-09-09T00:03:16;1.35;;;1.10;;
14268;SDS011;7218;51.480;7.006;2022-09-09T00:05:48;2.08;;;1.08;;
14268;SDS011;7218;51.480;7.006;2022-09-09T00:08:23;1.42;;;0.90;;
14268;SDS011;7218;51.480;7.006;2022-09-09T00:10:56;2.60;;;1.02;;
14268;SDS011;7218;51.480;7.006;2022-09-09T00:13:28;2.38;;;0.90;;
14268;SDS011;7218;51.480;7.006;2022-09-09T00:16:02;1.33;;;0.70;;
14268;SDS011;7218;51.480;7.006;2022-09-09T00:18:44;2.53;;;1.00;;
14268;SDS011;7218;51.480;7.006;2022-09-09T00:21:18;0.95;;;0.80;;
14268;SDS011;7218;51.480;7.006;2022-09-09T00:23:52;1.48;;;0.82;;
14268;SDS011;7218;51.480;7.006;2022-09-09T00:26:22;1.55;;;0.82;;
14268;SDS011;7218;51.480;7.006;2022-09-09T00:28:58;1.27;;;0.82;;
14268;SDS011;7218;51.480;7.006;2022-09-09T00:31:31;1.13;;;0.70;;
14268;SDS011;7218;51.480;7.006;2022-09-09T00:33:58;1.55;;;0.90;;
14268;SDS011;7218;51.480;7.006;2022-09-09T00:36:33;1.63;;;0.70;;
14268;SDS011;7218;51.480;7.006;2022-09-09T00:39:02;1.60;;;0.90;;
14268;SDS011;7218;51.480;7.006;2022-09-09T00:41:32;2.25;;;1.20;;
14268;SDS011;7218;51.480;7.006;2022-09-09T00:44:13;1.02;;;0.70;;
14268;SDS011;7218;51.480;7.006;2022-09-09T00:46:54;3.88;;;1.02;;
14268;SDS011;7218;51.480;7.006;2022-09-09T00:49:31;1.27;;;0.93;;
14268;SDS011;7218;51.480;7.006;2022-09-09T00:52:11;1.23;;;0.90;;
14268;SDS011;7218;51.480;7.006;2022-09-09T00:54:51;2.65;;;1.00;;
14268;SDS011;7218;51.480;7.006;2022-09-09T00:57:26;1.48;;;1.00;;
14268;SDS011;7218;51.480;7.006;2022-09-09T00:59:59;1.63;;;1.02;;
14268;SDS011;7218;51.480;7.006;2022-09-09T01:02:43;2.25;;;1.00;;
14268;SDS011;7218;51.480;7.006;2022-09-09T01:05:20;2.28;;;1.10;;
14268;SDS011;7218;51.480;7.006;2022-09-09T01:07:51;1.00;;;0.73;;
14268;SDS011;7218;51.480;7.006;2022-09-09T01:10:21;3.10;;;1.15;;
14268;SDS011;7218;51.480;7.006;2022-09-09T01:12:58;4.72;;;1.20;;
14268;SDS011;7218;51.480;7.006;2022-09-09T01:15:29;1.15;;;0.90;;
14268;SDS011;7218;51.480;7.006;2022-09-09T01:17:59;1.73;;;1.10;;
14268;SDS011;7218;51.480;7.006;2022-09-09T01:20:28;3.53;;;1.20;;
14268;SDS011;7218;51.480;7.006;2022-09-09T01:26:08;1.98;;;1.30;;
14268;SDS011;7218;51.480;7.006;2022-09-09T01:28:39;1.98;;;1.20;;
14268;SDS011;7218;51.480;7.006;2022-09-09T01:31:09;1.77;;;1.10;;
14268;SDS011;7218;51.480;7.006;2022-09-09T01:33:39;2.67;;;1.33;;
14268;SDS011;7218;51.480;7.006;2022-09-09T01:36:06;2.10;;;1.30;;
14268;SDS011;7218;51.480;7.006;2022-09-09T01:38:36;3.10;;;1.60;;
14268;SDS011;7218;51.480;7.006;2022-09-09T01:41:03;2.03;;;1.40;;
14268;SDS011;7218;51.480;7.006;2022-09-09T01:43:31;2.85;;;1.33;;
14268;SDS011;7218;51.480;7.006;2022-09-09T01:45:59;4.80;;;1.30;;
14268;SDS011;7218;51.480;7.006;2022-09-09T01:48:27;2.53;;;1.40;;
14268;SDS011;7218;51.480;7.006;2022-09-09T01:50:55;4.43;;;1.50;;
14268;SDS011;7218;51.480;7.006;2022-09-09T01:53:21;3.42;;;1.40;;
14268;SDS011;7218;51.480;7.006;2022-09-09T01:55:51;3.00;;;1.40;;
14268;SDS011;7218;51.480;7.006;2022-09-09T01:58:29;4.47;;;1.48;;
14268;SDS011;7218;51.480;7.006;2022-09-09T02:01:06;3.90;;;1.40;;
14268;SDS011;7218;51.480;7.006;2022-09-09T02:03:39;3.88;;;1.60;;
14268;SDS011;7218;51.480;7.006;2022-09-09T02:06:13;3.42;;;1.33;;
14268;SDS011;7218;51.480;7.006;2022-09-09T02:08:50;2.05;;;1.30;;
14268;SDS011;7218;51.480;7.006;2022-09-09T02:11:20;3.08;;;1.67;;
14268;SDS011;7218;51.480;7.006;2022-09-09T02:13:51;4.22;;;1.80;;
14268;SDS011;7218;51.480;7.006;2022-09-09T02:16:21;3.50;;;1.40;;
14268;SDS011;7218;51.480;7.006;2022-09-09T02:18:52;3.53;;;1.30;;
14268;SDS011;7218;51.480;7.006;2022-09-09T02:21:24;2.53;;;1.20;;
14268;SDS011;7218;51.480;7.006;2022-09-09T02:23:54;3.75;;;1.25;;
14268;SDS011;7218;51.480;7.006;2022-09-09T02:26:23;3.22;;;1.48;;
14268;SDS011;7218;51.480;7.006;2022-09-09T02:28:51;4.57;;;1.65;;
14268;SDS011;7218;51.480;7.006;2022-09-09T02:31:22;2.53;;;1.30;;
14268;SDS011;7218;51.480;7.006;2022-09-09T02:33:51;4.00;;;1.45;;
14268;SDS011;7218;51.480;7.006;2022-09-09T02:36:21;5.57;;;1.40;;
14268;SDS011;7218;51.480;7.006;2022-09-09T02:38:49;2.83;;;1.40;;
14268;SDS011;7218;51.480;7.006;2022-09-09T02:41:19;3.10;;;1.20;;
14268;SDS011;7218;51.480;7.006;2022-09-09T02:43:50;3.90;;;1.50;;
14268;SDS011;7218;51.480;7.006;2022-09-09T02:46:24;2.20;;;1.30;;
14268;SDS011;7218;51.480;7.006;2022-09-09T02:48:59;2.55;;;1.30;;
14268;SDS011;7218;51.480;7.006;2022-09-09T02:51:31;4.35;;;1.40;;
14268;SDS011;7218;51.480;7.006;2022-09-09T02:54:08;3.92;;;1.30;;
14268;SDS011;7218;51.480;7.006;2022-09-09T02:56:44;3.65;;;1.48;;
14268;SDS011;7218;51.480;7.006;2022-09-09T02:59:17;5.70;;;1.60;;
14268;SDS011;7218;51.480;7.006;2022-09-09T03:01:44;3.08;;;1.70;;
14268;SDS011;7218;51.480;7.006;2022-09-09T03:04:10;2.85;;;1.50;;
14268;SDS011;7218;51.480;7.006;2022-09-09T03:06:37;3.88;;;1.67;;
14268;SDS011;7218;51.480;7.006;2022-09-09T03:09:03;5.78;;;2.10;;
14268;SDS011;7218;51.480;7.006;2022-09-09T03:11:30;5.65;;;1.70;;
14268;SDS011;7218;51.480;7.006;2022-09-09T03:13:56;4.53;;;1.92;;
14268;SDS011;7218;51.480;7.006;2022-09-09T03:16:24;4.63;;;1.92;;
14268;SDS011;7218;51.480;7.006;2022-09-09T03:18:50;3.17;;;1.95;;
14268;SDS011;7218;51.480;7.006;2022-09-09T03:21:17;4.60;;;1.55;;
14268;SDS011;7218;51.480;7.006;2022-09-09T03:23:43;3.55;;;1.80;;
14268;SDS011;7218;51.480;7.006;2022-09-09T03:26:11;5.78;;;2.10;;
14268;SDS011;7218;51.480;7.006;2022-09-09T03:28:40;4.05;;;1.77;;
14268;SDS011;7218;51.480;7.006;2022-09-09T03:31:07;4.18;;;1.90;;
14268;SDS011;7218;51.480;7.006;2022-09-09T03:33:36;3.60;;;1.70;;
14268;SDS011;7218;51.480;7.006;2022-09-09T03:36:04;6.15;;;2.00;;
14268;SDS011;7218;51.480;7.006;2022-09-09T03:38:32;5.97;;;2.00;;
14268;SDS011;7218;51.480;7.006;2022-09-09T03:40:59;6.03;;;2.13;;
14268;SDS011;7218;51.480;7.006;2022-09-09T03:43:27;3.28;;;1.70;;
14268;SDS011;7218;51.480;7.006;2022-09-09T03:45:54;3.60;;;1.63;;
14268;SDS011;7218;51.480;7.006;2022-09-09T03:48:21;4.13;;;1.52;;
14268;SDS011;7218;51.480;7.006;2022-09-09T03:50:51;4.93;;;1.83;;
14268;SDS011;7218;51.480;7.006;2022-09-09T03:53:19;2.38;;;1.48;;
14268;SDS011;7218;51.480;7.006;2022-09-09T03:55:48;4.32;;;1.50;;
14268;SDS011;7218;51.480;7.006;2022-09-09T03:58:17;2.95;;;1.30;;
14268;SDS011;7218;51.480;7.006;2022-09-09T04:00:52;3.85;;;1.40;;
14268;SDS011;7218;51.480;7.006;2022-09-09T04:03:19;3.42;;;1.73;;
14268;SDS011;7218;51.480;7.006;2022-09-09T04:05:48;3.08;;;1.70;;
14268;SDS011;7218;51.480;7.006;2022-09-09T04:08:16;4.78;;;1.70;;
14268;SDS011;7218;51.480;7.006;2022-09-09T04:10:44;4.38;;;1.55;;
14268;SDS011;7218;51.480;7.006;2022-09-09T04:13:11;3.47;;;1.60;;
14268;SDS011;7218;51.480;7.006;2022-09-09T04:15:41;4.22;;;1.60;;
14268;SDS011;7218;51.480;7.006;2022-09-09T04:18:08;3.83;;;1.50;;
14268;SDS011;7218;51.480;7.006;2022-09-09T04:20:35;3.08;;;1.60;;
14268;SDS011;7218;51.480;7.006;2022-09-09T04:23:01;3.55;;;1.48;;
14268;SDS011;7218;51.480;7.006;2022-09-09T04:25:29;4.22;;;1.40;;
14268;SDS011;7218;51.480;7.006;2022-09-09T04:27:56;6.00;;;1.60;;
14268;SDS011;7218;51.480;7.006;2022-09-09T04:30:23;3.72;;;1.58;;
14268;SDS011;7218;51.480;7.006;2022-09-09T04:32:52;4.32;;;1.58;;
14268;SDS011;7218;51.480;7.006;2022-09-09T04:35:19;3.15;;;1.50;;
14268;SDS011;7218;51.480;7.006;2022-09-09T04:37:45;4.82;;;1.67;;
14268;SDS011;7218;51.480;7.006;2022-09-09T04:40:12;3.55;;;1.60;;
14268;SDS011;7218;51.480;7.006;2022-09-09T04:42:41;2.60;;;1.63;;
14268;SDS011;7218;51.480;7.006;2022-09-09T04:45:09;4.40;;;1.80;;
14268;SDS011;7218;51.480;7.006;2022-09-09T04:47:36;5.50;;;1.70;;
14268;SDS011;7218;51.480;7.006;2022-09-09T04:50:03;5.38;;;1.52;;
14268;SDS011;7218;51.480;7.006;2022-09-09T04:52:30;5.20;;;2.00;;
14268;SDS011;7218;51.480;7.006;2022-09-09T04:54:56;2.97;;;1.58;;
14268;SDS011;7218;51.480;7.006;2022-09-09T04:57:23;6.03;;;2.00;;
14268;SDS011;7218;51.480;7.006;2022-09-09T04:59:51;5.18;;;1.90;;
14268;SDS011;7218;51.480;7.006;2022-09-09T05:02:17;4.45;;;1.80;;
14268;SDS011;7218;51.480;7.006;2022-09-09T05:04:44;5.13;;;1.70;;
14268;SDS011;7218;51.480;7.006;2022-09-09T05:07:10;4.32;;;1.75;;
14268;SDS011;7218;51.480;7.006;2022-09-09T05:09:37;5.53;;;1.80;;
14268;SDS011;7218;51.480;7.006;2022-09-09T05:12:03;5.20;;;1.83;;
14268;SDS011;7218;51.480;7.006;2022-09-09T05:14:30;4.82;;;1.90;;
14268;SDS011;7218;51.480;7.006;2022-09-09T05:16:58;5.05;;;2.10;;
14268;SDS011;7218;51.480;7.006;2022-09-09T05:19:24;4.03;;;1.90;;
14268;SDS011;7218;51.480;7.006;2022-09-09T05:21:50;4.82;;;1.95;;
14268;SDS011;7218;51.480;7.006;2022-09-09T05:24:17;7.43;;;1.90;;
14268;SDS011;7218;51.480;7.006;2022-09-09T05:26:43;4.00;;;1.83;;
14268;SDS011;7218;51.480;7.006;2022-09-09T05:29:10;4.90;;;2.00;;
14268;SDS011;7218;51.480;7.006;2022-09-09T05:31:36;5.22;;;1.83;;
14268;SDS011;7218;51.480;7.006;2022-09-09T05:34:05;4.97;;;1.80;;
14268;SDS011;7218;51.480;7.006;2022-09-09T05:36:31;5.40;;;2.08;;
14268;SDS011;7218;51.480;7.006;2022-09-09T05:38:58;7.07;;;2.08;;
14268;SDS011;7218;51.480;7.006;2022-09-09T05:41:24;3.38;;;1.63;;
14268;SDS011;7218;51.480;7.006;2022-09-09T05:43:51;5.63;;;1.80;;
14268;SDS011;7218;51.480;7.006;2022-09-09T05:46:18;6.35;;;2.08;;
14268;SDS011;7218;51.480;7.006;2022-09-09T05:48:45;3.40;;;2.03;;
14268;SDS011;7218;51.480;7.006;2022-09-09T05:51:15;5.47;;;1.77;;
14268;SDS011;7218;51.480;7.006;2022-09-09T05:53:43;6.00;;;2.13;;
14268;SDS011;7218;51.480;7.006;2022-09-09T05:56:10;5.57;;;1.80;;
14268;SDS011;7218;51.480;7.006;2022-09-09T05:58:39;5.72;;;1.90;;
14268;SDS011;7218;51.480;7.006;2022-09-09T06:01:09;6.15;;;2.28;;
14268;SDS011;7218;51.480;7.006;2022-09-09T06:03:38;6.43;;;2.10;;
14268;SDS011;7218;51.480;7.006;2022-09-09T06:06:07;8.82;;;2.33;;
14268;SDS011;7218;51.480;7.006;2022-09-09T06:08:36;6.50;;;2.00;;
14268;SDS011;7218;51.480;7.006;2022-09-09T06:11:05;4.15;;;1.83;;
14268;SDS011;7218;51.480;7.006;2022-09-09T06:13:32;8.70;;;2.00;;
14268;SDS011;7218;51.480;7.006;2022-09-09T06:16:00;6.40;;;2.20;;
14268;SDS011;7218;51.480;7.006;2022-09-09T06:18:26;5.90;;;2.20;;
14268;SDS011;7218;51.480;7.006;2022-09-09T06:20:55;6.22;;;2.15;;
14268;SDS011;7218;51.480;7.006;2022-09-09T06:23:22;4.03;;;1.65;;
14268;SDS011;7218;51.480;7.006;2022-09-09T06:25:51;6.70;;;1.95;;
14268;SDS011;7218;51.480;7.006;2022-09-09T06:28:17;9.13;;;1.90;;
14268;SDS011;7218;51.480;7.006;2022-09-09T06:30:44;6.63;;;2.05;;
14268;SDS011;7218;51.480;7.006;2022-09-09T06:33:12;4.32;;;2.00;;
14268;SDS011;7218;51.480;7.006;2022-09-09T06:35:38;6.65;;;2.05;;
14268;SDS011;7218;51.480;7.006;2022-09-09T06:38:04;4.30;;;2.00;;
14268;SDS011;7218;51.480;7.006;2022-09-09T06:40:33;6.70;;;2.00;;
14268;SDS011;7218;51.480;7.006;2022-09-09T06:43:01;6.63;;;2.17;;
14268;SDS011;7218;51.480;7.006;2022-09-09T06:45:27;5.32;;;1.83;;
14268;SDS011;7218;51.480;7.006;2022-09-09T06:47:54;7.60;;;2.20;;
14268;SDS011;7218;51.480;7.006;2022-09-09T06:50:21;6.32;;;2.30;;
14268;SDS011;7218;51.480;7.006;2022-09-09T06:52:48;6.00;;;2.40;;
14268;SDS011;7218;51.480;7.006;2022-09-09T06:55:14;7.72;;;2.47;;
14268;SDS011;7218;51.480;7.006;2022-09-09T06:57:42;5.22;;;1.88;;
14268;SDS011;7218;51.480;7.006;2022-09-09T07:00:11;6.93;;;1.90;;
14268;SDS011;7218;51.480;7.006;2022-09-09T07:02:39;6.55;;;1.90;;
14268;SDS011;7218;51.480;7.006;2022-09-09T07:05:06;5.35;;;2.03;;
14268;SDS011;7218;51.480;7.006;2022-09-09T07:07:33;5.10;;;1.88;;
14268;SDS011;7218;51.480;7.006;2022-09-09T07:10:00;7.60;;;1.90;;
14268;SDS011;7218;51.480;7.006;2022-09-09T07:12:26;7.38;;;1.95;;
14268;SDS011;7218;51.480;7.006;2022-09-09T07:14:53;5.93;;;1.80;;
14268;SDS011;7218;51.480;7.006;2022-09-09T07:17:21;5.75;;;1.90;;
14268;SDS011;7218;51.480;7.006;2022-09-09T07:19:48;5.63;;;1.63;;
14268;SDS011;7218;51.480;7.006;2022-09-09T07:22:14;5.93;;;1.80;;
14268;SDS011;7218;51.480;7.006;2022-09-09T07:24:41;5.72;;;2.10;;
14268;SDS011;7218;51.480;7.006;2022-09-09T07:27:10;8.50;;;1.80;;
14268;SDS011;7218;51.480;7.006;2022-09-09T07:29:36;4.93;;;1.85;;
14268;SDS011;7218;51.480;7.006;2022-09-09T07:32:03;7.00;;;1.95;;
14268;SDS011;7218;51.480;7.006;2022-09-09T07:34:30;5.53;;;1.83;;
14268;SDS011;7218;51.480;7.006;2022-09-09T07:36:57;5.55;;;2.13;;
14268;SDS011;7218;51.480;7.006;2022-09-09T07:39:23;6.35;;;1.67;;
14268;SDS011;7218;51.480;7.006;2022-09-09T07:41:50;6.40;;;1.98;;
14268;SDS011;7218;51.480;7.006;2022-09-09T07:44:17;5.93;;;1.80;;
14268;SDS011;7218;51.480;7.006;2022-09-09T07:46:46;6.20;;;1.80;;
14268;SDS011;7218;51.480;7.006;2022-09-09T07:49:13;4.00;;;1.67;;
14268;SDS011;7218;51.480;7.006;2022-09-09T07:51:42;4.93;;;1.98;;
14268;SDS011;7218;51.480;7.006;2022-09-09T07:54:11;6.50;;;1.92;;
14268;SDS011;7218;51.480;7.006;2022-09-09T07:56:40;6.78;;;1.85;;
14268;SDS011;7218;51.480;7.006;2022-09-09T07:59:07;5.20;;;1.75;;
14268;SDS011;7218;51.480;7.006;2022-09-09T08:01:36;4.68;;;1.85;;
14268;SDS011;7218;51.480;7.006;2022-09-09T08:04:05;4.68;;;1.40;;
14268;SDS011;7218;51.480;7.006;2022-09-09T08:06:36;5.45;;;1.63;;
14268;SDS011;7218;51.480;7.006;2022-09-09T08:09:06;4.38;;;1.58;;
14268;SDS011;7218;51.480;7.006;2022-09-09T08:11:34;3.92;;;1.40;;
14268;SDS011;7218;51.480;7.006;2022-09-09T08:14:01;5.15;;;2.03;;
14268;SDS011;7218;51.480;7.006;2022-09-09T08:16:29;5.13;;;1.45;;
14268;SDS011;7218;51.480;7.006;2022-09-09T08:18:57;5.82;;;1.60;;
14268;SDS011;7218;51.480;7.006;2022-09-09T08:21:24;5.80;;;1.70;;
14268;SDS011;7218;51.480;7.006;2022-09-09T08:23:53;4.57;;;1.48;;
14268;SDS011;7218;51.480;7.006;2022-09-09T08:26:23;3.58;;;1.45;;
14268;SDS011;7218;51.480;7.006;2022-09-09T08:28:53;8.00;;;1.63;;
14268;SDS011;7218;51.480;7.006;2022-09-09T08:31:23;7.40;;;1.77;;
14268;SDS011;7218;51.480;7.006;2022-09-09T08:33:52;6.80;;;1.60;;
14268;SDS011;7218;51.480;7.006;2022-09-09T08:36:19;4.55;;;1.90;;
14268;SDS011;7218;51.480;7.006;2022-09-09T08:38:47;4.47;;;1.70;;
14268;SDS011;7218;51.480;7.006;2022-09-09T08:41:22;5.35;;;1.58;;
14268;SDS011;7218;51.480;7.006;2022-09-09T08:44:02;5.63;;;1.70;;
14268;SDS011;7218;51.480;7.006;2022-09-09T08:46:34;4.28;;;1.42;;
14268;SDS011;7218;51.480;7.006;2022-09-09T08:49:12;6.63;;;1.60;;
14268;SDS011;7218;51.480;7.006;2022-09-09T08:51:50;5.03;;;1.50;;
14268;SDS011;7218;51.480;7.006;2022-09-09T08:54:21;4.60;;;1.50;;
14268;SDS011;7218;51.480;7.006;2022-09-09T08:56:49;4.53;;;1.60;;
14268;SDS011;7218;51.480;7.006;2022-09-09T08:59:17;5.22;;;1.52;;
14268;SDS011;7218;51.480;7.006;2022-09-09T09:01:50;4.03;;;1.35;;
14268;SDS011;7218;51.480;7.006;2022-09-09T09:04:37;3.42;;;1.33;;
14268;SDS011;7218;51.480;7.006;2022-09-09T09:07:16;2.58;;;1.27;;
14268;SDS011;7218;51.480;7.006;2022-09-09T09:09:55;6.38;;;1.60;;
14268;SDS011;7218;51.480;7.006;2022-09-09T09:12:28;3.08;;;1.33;;
14268;SDS011;7218;51.480;7.006;2022-09-09T09:15:01;6.43;;;1.60;;
14268;SDS011;7218;51.480;7.006;2022-09-09T09:17:29;7.13;;;1.67;;
14268;SDS011;7218;51.480;7.006;2022-09-09T09:19:58;5.57;;;1.45;;
14268;SDS011;7218;51.480;7.006;2022-09-09T09:22:26;4.80;;;1.48;;
14268;SDS011;7218;51.480;7.006;2022-09-09T09:25:01;4.05;;;1.50;;
14268;SDS011;7218;51.480;7.006;2022-09-09T09:27:39;4.90;;;1.70;;
14268;SDS011;7218;51.480;7.006;2022-09-09T09:30:12;4.20;;;1.67;;
14268;SDS011;7218;51.480;7.006;2022-09-09T09:32:43;7.25;;;1.60;;
14268;SDS011;7218;51.480;7.006;2022-09-09T09:35:17;4.22;;;1.38;;
14268;SDS011;7218;51.480;7.006;2022-09-09T09:37:44;5.38;;;1.50;;
14268;SDS011;7218;51.480;7.006;2022-09-09T09:40:12;6.13;;;1.60;;
14268;SDS011;7218;51.480;7.006;2022-09-09T09:42:48;6.13;;;1.65;;
14268;SDS011;7218;51.480;7.006;2022-09-09T09:45:20;8.15;;;1.80;;
14268;SDS011;7218;51.480;7.006;2022-09-09T09:48:00;5.65;;;1.80;;
14268;SDS011;7218;51.480;7.006;2022-09-09T09:50:28;5.45;;;1.58;;
14268;SDS011;7218;51.480;7.006;2022-09-09T09:52:55;5.38;;;1.80;;
14268;SDS011;7218;51.480;7.006;2022-09-09T09:55:23;3.80;;;1.30;;
14268;SDS011;7218;51.480;7.006;2022-09-09T09:57:53;6.70;;;1.60;;
14268;SDS011;7218;51.480;7.006;2022-09-09T10:00:26;5.85;;;1.50;;
14268;SDS011;7218;51.480;7.006;2022-09-09T10:02:52;4.40;;;1.30;;
14268;SDS011;7218;51.480;7.006;2022-09-09T10:05:20;5.63;;;1.40;;
14268;SDS011;7218;51.480;7.006;2022-09-09T10:07:59;4.72;;;1.33;;
14268;SDS011;7218;51.480;7.006;2022-09-09T10:10:27;2.92;;;1.40;;
14268;SDS011;7218;51.480;7.006;2022-09-09T10:13:06;4.50;;;1.70;;
14268;SDS011;7218;51.480;7.006;2022-09-09T10:15:41;5.60;;;1.45;;
14268;SDS011;7218;51.480;7.006;2022-09-09T10:18:22;4.65;;;1.60;;
14268;SDS011;7218;51.480;7.006;2022-09-09T10:21:03;4.45;;;1.33;;
14268;SDS011;7218;51.480;7.006;2022-09-09T10:23:43;4.00;;;1.55;;
14268;SDS011;7218;51.480;7.006;2022-09-09T10:26:22;4.80;;;1.38;;
14268;SDS011;7218;51.480;7.006;2022-09-09T10:29:05;4.03;;;1.35;;
14268;SDS011;7218;51.480;7.006;2022-09-09T10:31:48;3.70;;;1.40;;
14268;SDS011;7218;51.480;7.006;2022-09-09T10:34:24;6.30;;;1.42;;
14268;SDS011;7218;51.480;7.006;2022-09-09T10:37:03;4.75;;;1.65;;
14268;SDS011;7218;51.480;7.006;2022-09-09T10:39:42;2.25;;;1.10;;
14268;SDS011;7218;51.480;7.006;2022-09-09T10:42:09;2.92;;;1.20;;
14268;SDS011;7218;51.480;7.006;2022-09-09T10:44:44;4.90;;;1.20;;
14268;SDS011;7218;51.480;7.006;2022-09-09T10:47:24;3.60;;;1.10;;
14268;SDS011;7218;51.480;7.006;2022-09-09T10:50:09;3.10;;;1.20;;
14268;SDS011;7218;51.480;7.006;2022-09-09T10:52:46;2.72;;;1.10;;
14268;SDS011;7218;51.480;7.006;2022-09-09T10:55:23;2.20;;;1.10;;
14268;SDS011;7218;51.480;7.006;2022-09-09T10:57:52;3.42;;;1.27;;
14268;SDS011;7218;51.480;7.006;2022-09-09T11:00:24;2.97;;;1.10;;
14268;SDS011;7218;51.480;7.006;2022-09-09T11:02:56;2.75;;;1.20;;
14268;SDS011;7218;51.480;7.006;2022-09-09T11:05:26;2.13;;;1.10;;
14268;SDS011;7218;51.480;7.006;2022-09-09T11:07:56;3.45;;;1.17;;
14268;SDS011;7218;51.480;7.006;2022-09-09T11:10:29;3.40;;;1.30;;
14268;SDS011;7218;51.480;7.006;2022-09-09T11:13:04;2.63;;;1.25;;
14268;SDS011;7218;51.480;7.006;2022-09-09T11:15:41;3.22;;;1.40;;
14268;SDS011;7218;51.480;7.006;2022-09-09T11:18:13;4.60;;;1.30;;
14268;SDS011;7218;51.480;7.006;2022-09-09T11:20:45;6.60;;;1.35;;
14268;SDS011;7218;51.480;7.006;2022-09-09T11:23:14;5.53;;;1.33;;
14268;SDS011;7218;51.480;7.006;2022-09-09T11:25:47;3.47;;;1.35;;
14268;SDS011;7218;51.480;7.006;2022-09-09T11:28:22;4.05;;;1.35;;
14268;SDS011;7218;51.480;7.006;2022-09-09T11:31:03;3.47;;;1.40;;
14268;SDS011;7218;51.480;7.006;2022-09-09T11:33:53;3.05;;;1.25;;
14268;SDS011;7218;51.480;7.006;2022-09-09T11:36:36;3.38;;;1.30;;
14268;SDS011;7218;51.480;7.006;2022-09-09T11:39:18;3.33;;;1.50;;
14268;SDS011;7218;51.480;7.006;2022-09-09T11:42:13;2.83;;;1.10;;
14268;SDS011;7218;51.480;7.006;2022-09-09T11:44:49;2.53;;;1.20;;
14268;SDS011;7218;51.480;7.006;2022-09-09T11:47:24;3.80;;;1.35;;
14268;SDS011;7218;51.480;7.006;2022-09-09T11:49:55;1.55;;;1.17;;
14268;SDS011;7218;51.480;7.006;2022-09-09T11:52:36;2.67;;;1.20;;
14268;SDS011;7218;51.480;7.006;2022-09-09T11:55:08;3.83;;;1.38;;
14268;SDS011;7218;51.480;7.006;2022-09-09T11:57:36;4.13;;;1.10;;
14268;SDS011;7218;51.480;7.006;2022-09-09T12:00:03;2.38;;;1.20;;
14268;SDS011;7218;51.480;7.006;2022-09-09T12:02:32;4.03;;;1.40;;
14268;SDS011;7218;51.480;7.006;2022-09-09T12:05:02;2.08;;;1.10;;
14268;SDS011;7218;51.480;7.006;2022-09-09T12:07:33;2.53;;;1.08;;
14268;SDS011;7218;51.480;7.006;2022-09-09T12:10:05;1.67;;;1.00;;
14268;SDS011;7218;51.480;7.006;2022-09-09T12:12:48;1.60;;;1.10;;
14268;SDS011;7218;51.480;7.006;2022-09-09T12:15:22;3.85;;;1.20;;
14268;SDS011;7218;51.480;7.006;2022-09-09T12:17:55;4.28;;;1.15;;
14268;SDS011;7218;51.480;7.006;2022-09-09T12:20:23;3.25;;;1.30;;
14268;SDS011;7218;51.480;7.006;2022-09-09T12:23:00;2.30;;;1.08;;
14268;SDS011;7218;51.480;7.006;2022-09-09T12:25:42;2.38;;;1.13;;
14268;SDS011;7218;51.480;7.006;2022-09-09T12:28:20;2.58;;;1.20;;
14268;SDS011;7218;51.480;7.006;2022-09-09T12:30:55;2.33;;;1.10;;
14268;SDS011;7218;51.480;7.006;2022-09-09T12:33:34;2.47;;;1.20;;
14268;SDS011;7218;51.480;7.006;2022-09-09T12:36:02;1.73;;;1.13;;
14268;SDS011;7218;51.480;7.006;2022-09-09T12:38:31;3.83;;;1.30;;
14268;SDS011;7218;51.480;7.006;2022-09-09T12:41:02;3.85;;;1.20;;
14268;SDS011;7218;51.480;7.006;2022-09-09T12:43:29;3.20;;;1.25;;
14268;SDS011;7218;51.480;7.006;2022-09-09T12:45:56;3.80;;;1.30;;
14268;SDS011;7218;51.480;7.006;2022-09-09T12:48:27;1.45;;;1.00;;
14268;SDS011;7218;51.480;7.006;2022-09-09T12:50:59;0.90;;;0.80;;
14268;SDS011;7218;51.480;7.006;2022-09-09T12:53:28;3.30;;;1.40;;
14268;SDS011;7218;51.480;7.006;2022-09-09T12:55:58;3.13;;;1.10;;
14268;SDS011;7218;51.480;7.006;2022-09-09T12:58:27;5.90;;;1.30;;
14268;SDS011;7218;51.480;7.006;2022-09-09T13:00:58;3.70;;;1.10;;
14268;SDS011;7218;51.480;7.006;2022-09-09T13:03:25;2.25;;;1.10;;
14268;SDS011;7218;51.480;7.006;2022-09-09T13:05:53;2.42;;;1.20;;
14268;SDS011;7218;51.480;7.006;2022-09-09T13:08:26;4.60;;;1.25;;
14268;SDS011;7218;51.480;7.006;2022-09-09T13:10:53;4.38;;;1.30;;
14268;SDS011;7218;51.480;7.006;2022-09-09T13:13:23;6.40;;;1.50;;
14268;SDS011;7218;51.480;7.006;2022-09-09T13:15:55;3.58;;;1.10;;
14268;SDS011;7218;51.480;7.006;2022-09-09T13:18:24;5.18;;;1.55;;
14268;SDS011;7218;51.480;7.006;2022-09-09T13:20:54;2.15;;;1.10;;
14268;SDS011;7218;51.480;7.006;2022-09-09T13:23:30;2.08;;;1.30;;
14268;SDS011;7218;51.480;7.006;2022-09-09T13:26:00;4.43;;;1.40;;
14268;SDS011;7218;51.480;7.006;2022-09-09T13:28:29;6.55;;;4.93;;
14268;SDS011;7218;51.480;7.006;2022-09-09T13:30:57;12.65;;;8.35;;
14268;SDS011;7218;51.480;7.006;2022-09-09T13:33:31;5.30;;;2.70;;
14268;SDS011;7218;51.480;7.006;2022-09-09T13:35:59;6.32;;;3.65;;
14268;SDS011;7218;51.480;7.006;2022-09-09T13:38:30;5.40;;;2.10;;
14268;SDS011;7218;51.480;7.006;2022-09-09T13:41:00;5.43;;;2.08;;
14268;SDS011;7218;51.480;7.006;2022-09-09T13:43:30;4.90;;;1.92;;
14268;SDS011;7218;51.480;7.006;2022-09-09T13:45:58;4.75;;;1.90;;
14268;SDS011;7218;51.480;7.006;2022-09-09T13:48:26;2.72;;;1.52;;
14268;SDS011;7218;51.480;7.006;2022-09-09T13:50:58;4.28;;;1.73;;
14268;SDS011;7218;51.480;7.006;2022-09-09T13:53:28;2.88;;;1.20;;
14268;SDS011;7218;51.480;7.006;2022-09-09T13:55:56;2.40;;;1.23;;
14268;SDS011;7218;51.480;7.006;2022-09-09T13:58:24;3.55;;;1.05;;
14268;SDS011;7218;51.480;7.006;2022-09-09T14:00:51;3.17;;;1.20;;
14268;SDS011;7218;51.480;7.006;2022-09-09T14:03:18;4.47;;;1.60;;
14268;SDS011;7218;51.480;7.006;2022-09-09T14:05:45;2.42;;;1.30;;
14268;SDS011;7218;51.480;7.006;2022-09-09T14:08:16;2.15;;;1.10;;
14268;SDS011;7218;51.480;7.006;2022-09-09T14:10:48;4.90;;;1.40;;
14268;SDS011;7218;51.480;7.006;2022-09-09T14:13:16;3.50;;;1.10;;
14268;SDS011;7218;51.480;7.006;2022-09-09T14:15:43;3.00;;;1.17;;
14268;SDS011;7218;51.480;7.006;2022-09-09T14:18:11;2.25;;;1.20;;
14268;SDS011;7218;51.480;7.006;2022-09-09T14:20:39;2.42;;;1.30;;
14268;SDS011;7218;51.480;7.006;2022-09-09T14:23:07;3.55;;;1.50;;
14268;SDS011;7218;51.480;7.006;2022-09-09T14:25:36;1.92;;;1.20;;
14268;SDS011;7218;51.480;7.006;2022-09-09T14:28:07;3.85;;;1.20;;
14268;SDS011;7218;51.480;7.006;2022-09-09T14:30:36;3.22;;;1.27;;
14268;SDS011;7218;51.480;7.006;2022-09-09T14:33:03;6.07;;;1.20;;
14268;SDS011;7218;51.480;7.006;2022-09-09T14:35:29;2.47;;;1.27;;
14268;SDS011;7218;51.480;7.006;2022-09-09T14:37:56;4.50;;;1.60;;
14268;SDS011;7218;51.480;7.006;2022-09-09T14:40:22;4.53;;;1.80;;
14268;SDS011;7218;51.480;7.006;2022-09-09T14:42:49;3.55;;;1.60;;
14268;SDS011;7218;51.480;7.006;2022-09-09T14:45:15;4.13;;;1.50;;
14268;SDS011;7218;51.480;7.006;2022-09-09T14:47:43;2.38;;;1.02;;
14268;SDS011;7218;51.480;7.006;2022-09-09T14:50:10;4.00;;;1.52;;
14268;SDS011;7218;51.480;7.006;2022-09-09T14:52:37;3.72;;;1.30;;
14268;SDS011;7218;51.480;7.006;2022-09-09T14:55:04;2.90;;;1.30;;
14268;SDS011;7218;51.480;7.006;2022-09-09T14:57:32;3.45;;;1.30;;
14268;SDS011;7218;51.480;7.006;2022-09-09T14:59:59;2.90;;;1.63;;
14268;SDS011;7218;51.480;7.006;2022-09-09T15:02:26;4.30;;;1.40;;
14268;SDS011;7218;51.480;7.006;2022-09-09T15:04:56;3.45;;;1.50;;
14268;SDS011;7218;51.480;7.006;2022-09-09T15:07:23;2.15;;;1.17;;
14268;SDS011;7218;51.480;7.006;2022-09-09T15:09:49;0.98;;;0.60;;
14268;SDS011;7218;51.480;7.006;2022-09-09T15:12:17;1.58;;;1.40;;
14268;SDS011;7218;51.480;7.006;2022-09-09T15:14:45;1.50;;;1.08;;
14268;SDS011;7218;51.480;7.006;2022-09-09T15:17:13;1.90;;;1.40;;
14268;SDS011;7218;51.480;7.006;2022-09-09T15:19:39;1.73;;;1.20;;
14268;SDS011;7218;51.480;7.006;2022-09-09T15:22:08;2.40;;;1.33;;